sensor_id;sensor_type;location;lat;lon;timestamp;P1;durP1;ratioP1;P2;durP2;ratioP2
1991;SDS011;997;48.448;8.924;2023-02-04T04:02:01;2.60;;;2.40;;
1991;SDS011;997;48.448;8.924;2023-02-04T04:04:27;1.83;;;1.60;;
1991;SDS011;997;48.448;8.924;2023-02-04T04:06:52;3.67;;;2.30;;
1991;SDS011;997;48.448;8.924;2023-02-04T04:09:18;3.67;;;2.10;;
1991;SDS011;997;48.448;8.924;2023-02-04T04:11:44;2.63;;;2.43;;
1991;SDS011;997;48.448;8.924;2023-02-04T04:14:10;2.77;;;2.57;;
1991;SDS011;997;48.448;8.924;2023-02-04T04:19:11;3.00;;;2.50;;
1991;SDS011;997;48.448;8.924;2023-02-04T04:21:37;2.93;;;2.73;;
1991;SDS011;997;48.448;8.924;2023-02-04T04:24:02;2.57;;;2.40;;
1991;SDS011;997;48.448;8.924;2023-02-04T04:26:28;2.30;;;2.10;;
1991;SDS011;997;48.448;8.924;2023-02-04T04:28:54;2.10;;;1.90;;
1991;SDS011;997;48.448;8.924;2023-02-04T04:31:19;2.00;;;1.90;;
1991;SDS011;997;48.448;8.924;2023-02-04T04:33:45;2.57;;;2.37;;
1991;SDS011;997;48.448;8.924;2023-02-04T04:36:10;2.50;;;2.30;;
1991;SDS011;997;48.448;8.924;2023-02-04T04:38:36;3.07;;;2.87;;
1991;SDS011;997;48.448;8.924;2023-02-04T04:41:02;2.40;;;2.20;;
1991;SDS011;997;48.448;8.924;2023-02-04T04:43:27;3.70;;;3.40;;
1991;SDS011;997;48.448;8.924;2023-02-04T04:45:53;2.10;;;1.90;;
1991;SDS011;997;48.448;8.924;2023-02-04T04:48:19;3.00;;;2.67;;
1991;SDS011;997;48.448;8.924;2023-02-04T04:50:45;2.70;;;2.40;;
1991;SDS011;997;48.448;8.924;2023-02-04T04:53:11;2.50;;;2.30;;
1991;SDS011;997;48.448;8.924;2023-02-04T04:55:37;2.37;;;2.27;;
1991;SDS011;997;48.448;8.924;2023-02-04T04:58:03;4.23;;;2.73;;
1991;SDS011;997;48.448;8.924;2023-02-04T05:00:29;3.70;;;2.03;;
1991;SDS011;997;48.448;8.924;2023-02-04T05:02:55;2.13;;;2.03;;
1991;SDS011;997;48.448;8.924;2023-02-04T05:05:20;2.40;;;2.20;;
1991;SDS011;997;48.448;8.924;2023-02-04T05:07:46;2.83;;;2.60;;
1991;SDS011;997;48.448;8.924;2023-02-04T05:10:11;2.87;;;2.60;;
1991;SDS011;997;48.448;8.924;2023-02-04T05:12:37;3.00;;;2.80;;
1991;SDS011;997;48.448;8.924;2023-02-04T05:15:03;6.50;;;2.67;;
1991;SDS011;997;48.448;8.924;2023-02-04T05:17:29;3.87;;;3.57;;
1991;SDS011;997;48.448;8.924;2023-02-04T05:19:55;2.93;;;2.73;;
1991;SDS011;997;48.448;8.924;2023-02-04T05:22:20;3.70;;;3.40;;
1991;SDS011;997;48.448;8.924;2023-02-04T05:24:46;3.50;;;3.20;;
1991;SDS011;997;48.448;8.924;2023-02-04T05:27:12;2.53;;;2.33;;
1991;SDS011;997;48.448;8.924;2023-02-04T05:29:37;3.20;;;2.90;;
1991;SDS011;997;48.448;8.924;2023-02-04T05:32:03;2.80;;;2.60;;
1991;SDS011;997;48.448;8.924;2023-02-04T05:34:29;3.07;;;2.77;;
1991;SDS011;997;48.448;8.924;2023-02-04T05:36:54;3.90;;;3.50;;
1991;SDS011;997;48.448;8.924;2023-02-04T05:39:20;4.03;;;3.33;;
1991;SDS011;997;48.448;8.924;2023-02-04T05:41:45;3.00;;;2.60;;
1991;SDS011;997;48.448;8.924;2023-02-04T05:44:11;3.03;;;2.40;;
1991;SDS011;997;48.448;8.924;2023-02-04T05:46:37;3.30;;;2.30;;
1991;SDS011;997;48.448;8.924;2023-02-04T05:49:03;3.10;;;2.13;;
1991;SDS011;997;48.448;8.924;2023-02-04T05:51:30;3.10;;;1.83;;
1991;SDS011;997;48.448;8.924;2023-02-04T05:53:55;2.60;;;2.40;;
1991;SDS011;997;48.448;8.924;2023-02-04T05:56:21;4.53;;;2.40;;
1991;SDS011;997;48.448;8.924;2023-02-04T05:58:46;3.17;;;2.13;;
1991;SDS011;997;48.448;8.924;2023-02-04T06:01:12;4.83;;;1.90;;
1991;SDS011;997;48.448;8.924;2023-02-04T06:03:38;4.70;;;2.37;;
1991;SDS011;997;48.448;8.924;2023-02-04T06:06:04;2.60;;;1.97;;
1991;SDS011;997;48.448;8.924;2023-02-04T06:08:29;2.30;;;2.10;;
1991;SDS011;997;48.448;8.924;2023-02-04T06:10:55;1.80;;;1.70;;
1991;SDS011;997;48.448;8.924;2023-02-04T06:13:21;4.13;;;2.27;;
1991;SDS011;997;48.448;8.924;2023-02-04T06:15:46;2.27;;;2.07;;
1991;SDS011;997;48.448;8.924;2023-02-04T06:18:12;10.80;;;7.87;;
1991;SDS011;997;48.448;8.924;2023-02-04T06:20:38;2.77;;;2.43;;
1991;SDS011;997;48.448;8.924;2023-02-04T06:23:03;3.93;;;2.80;;
1991;SDS011;997;48.448;8.924;2023-02-04T06:25:29;5.27;;;4.77;;
1991;SDS011;997;48.448;8.924;2023-02-04T06:27:55;3.30;;;2.37;;
1991;SDS011;997;48.448;8.924;2023-02-04T06:30:20;2.00;;;1.70;;
1991;SDS011;997;48.448;8.924;2023-02-04T06:32:46;1.93;;;1.73;;
1991;SDS011;997;48.448;8.924;2023-02-04T06:35:12;4.73;;;2.07;;
1991;SDS011;997;48.448;8.924;2023-02-04T06:37:39;2.80;;;1.50;;
1991;SDS011;997;48.448;8.924;2023-02-04T06:40:05;3.63;;;2.90;;
1991;SDS011;997;48.448;8.924;2023-02-04T06:42:32;3.80;;;2.60;;
1991;SDS011;997;48.448;8.924;2023-02-04T06:44:58;2.00;;;1.87;;
1991;SDS011;997;48.448;8.924;2023-02-04T06:47:24;2.97;;;2.47;;
1991;SDS011;997;48.448;8.924;2023-02-04T06:49:49;4.20;;;2.90;;
1991;SDS011;997;48.448;8.924;2023-02-04T06:52:15;2.40;;;2.20;;
1991;SDS011;997;48.448;8.924;2023-02-04T06:57:16;2.47;;;2.10;;
1991;SDS011;997;48.448;8.924;2023-02-04T06:59:42;3.43;;;2.90;;
1991;SDS011;997;48.448;8.924;2023-02-04T07:02:07;4.07;;;2.80;;
1991;SDS011;997;48.448;8.924;2023-02-04T07:04:36;9.00;;;4.87;;
1991;SDS011;997;48.448;8.924;2023-02-04T07:07:02;7.97;;;5.50;;
1991;SDS011;997;48.448;8.924;2023-02-04T07:14:38;10.20;;;6.80;;
1991;SDS011;997;48.448;8.924;2023-02-04T09:03:13;9.63;;;4.77;;
1991;SDS011;997;48.448;8.924;2023-02-04T09:05:56;7.90;;;5.93;;
1991;SDS011;997;48.448;8.924;2023-02-04T10:20:54;5.40;;;4.43;;
1991;SDS011;997;48.448;8.924;2023-02-04T10:23:42;10.70;;;6.80;;
1991;SDS011;997;48.448;8.924;2023-02-04T10:26:11;5.23;;;3.90;;
1991;SDS011;997;48.448;8.924;2023-02-04T10:28:39;6.07;;;3.43;;
1991;SDS011;997;48.448;8.924;2023-02-04T10:31:05;8.77;;;3.83;;
1991;SDS011;997;48.448;8.924;2023-02-04T10:33:34;7.93;;;5.07;;
1991;SDS011;997;48.448;8.924;2023-02-04T10:36:13;5.23;;;3.40;;
1991;SDS011;997;48.448;8.924;2023-02-04T10:38:40;5.50;;;3.37;;
1991;SDS011;997;48.448;8.924;2023-02-04T10:41:11;5.30;;;2.97;;
1991;SDS011;997;48.448;8.924;2023-02-04T10:43:38;4.77;;;3.53;;
1991;SDS011;997;48.448;8.924;2023-02-04T10:46:04;8.70;;;4.20;;
1991;SDS011;997;48.448;8.924;2023-02-04T10:48:38;7.20;;;4.10;;
1991;SDS011;997;48.448;8.924;2023-02-04T10:51:07;6.47;;;4.00;;
1991;SDS011;997;48.448;8.924;2023-02-04T10:53:36;3.73;;;3.17;;
1991;SDS011;997;48.448;8.924;2023-02-04T10:56:20;5.77;;;3.37;;
1991;SDS011;997;48.448;8.924;2023-02-04T10:58:46;4.70;;;2.80;;
1991;SDS011;997;48.448;8.924;2023-02-04T11:01:13;6.33;;;2.80;;
1991;SDS011;997;48.448;8.924;2023-02-04T11:03:40;7.03;;;3.23;;
1991;SDS011;997;48.448;8.924;2023-02-04T11:06:14;5.37;;;4.10;;
1991;SDS011;997;48.448;8.924;2023-02-04T11:08:44;4.73;;;3.30;;
1991;SDS011;997;48.448;8.924;2023-02-04T11:11:14;5.20;;;3.40;;
1991;SDS011;997;48.448;8.924;2023-02-04T11:19:12;3.43;;;2.10;;
1991;SDS011;997;48.448;8.924;2023-02-04T11:21:42;3.33;;;2.30;;
1991;SDS011;997;48.448;8.924;2023-02-04T11:29:21;3.07;;;2.77;;
1991;SDS011;997;48.448;8.924;2023-02-04T11:39:44;10.53;;;4.53;;
1991;SDS011;997;48.448;8.924;2023-02-04T11:42:20;4.33;;;3.40;;
1991;SDS011;997;48.448;8.924;2023-02-04T11:45:39;4.53;;;2.60;;
1991;SDS011;997;48.448;8.924;2023-02-04T11:47:59;5.60;;;3.17;;
1991;SDS011;997;48.448;8.924;2023-02-04T11:50:29;4.53;;;3.50;;
1991;SDS011;997;48.448;8.924;2023-02-04T11:52:57;4.33;;;2.37;;
1991;SDS011;997;48.448;8.924;2023-02-04T11:55:26;4.70;;;3.17;;
1991;SDS011;997;48.448;8.924;2023-02-04T11:57:55;8.33;;;3.27;;
1991;SDS011;997;48.448;8.924;2023-02-04T12:00:25;9.13;;;3.00;;
1991;SDS011;997;48.448;8.924;2023-02-04T12:03:01;12.53;;;3.30;;
1991;SDS011;997;48.448;8.924;2023-02-04T12:05:43;8.13;;;2.60;;
1991;SDS011;997;48.448;8.924;2023-02-04T12:10:58;5.00;;;3.10;;
1991;SDS011;997;48.448;8.924;2023-02-04T12:13:27;7.50;;;2.87;;
1991;SDS011;997;48.448;8.924;2023-02-04T12:15:54;9.30;;;3.57;;
1991;SDS011;997;48.448;8.924;2023-02-04T12:18:26;3.00;;;2.60;;
1991;SDS011;997;48.448;8.924;2023-02-04T12:20:54;7.20;;;2.83;;
1991;SDS011;997;48.448;8.924;2023-02-04T12:23:20;8.93;;;3.10;;
1991;SDS011;997;48.448;8.924;2023-02-04T12:25:47;9.13;;;3.13;;
1991;SDS011;997;48.448;8.924;2023-02-04T12:28:13;9.77;;;2.20;;
1991;SDS011;997;48.448;8.924;2023-02-04T12:30:39;4.47;;;2.53;;
1991;SDS011;997;48.448;8.924;2023-02-04T12:33:05;18.40;;;5.10;;
1991;SDS011;997;48.448;8.924;2023-02-04T12:35:31;3.57;;;2.67;;
1991;SDS011;997;48.448;8.924;2023-02-04T12:37:57;8.60;;;3.33;;
1991;SDS011;997;48.448;8.924;2023-02-04T12:40:23;6.10;;;2.47;;
1991;SDS011;997;48.448;8.924;2023-02-04T12:42:49;6.90;;;3.37;;
1991;SDS011;997;48.448;8.924;2023-02-04T12:45:15;7.27;;;2.80;;
1991;SDS011;997;48.448;8.924;2023-02-04T12:47:42;5.77;;;2.70;;
1991;SDS011;997;48.448;8.924;2023-02-04T12:50:08;7.40;;;3.13;;
1991;SDS011;997;48.448;8.924;2023-02-04T12:52:35;5.57;;;3.07;;
1991;SDS011;997;48.448;8.924;2023-02-04T12:55:03;6.03;;;3.07;;
1991;SDS011;997;48.448;8.924;2023-02-04T12:57:30;4.27;;;2.80;;
1991;SDS011;997;48.448;8.924;2023-02-04T12:59:57;5.63;;;3.07;;
1991;SDS011;997;48.448;8.924;2023-02-04T13:02:25;5.73;;;3.10;;
1991;SDS011;997;48.448;8.924;2023-02-04T13:04:51;4.73;;;3.10;;
1991;SDS011;997;48.448;8.924;2023-02-04T13:07:17;5.30;;;3.50;;
1991;SDS011;997;48.448;8.924;2023-02-04T13:09:43;6.47;;;3.90;;
1991;SDS011;997;48.448;8.924;2023-02-04T13:12:12;3.23;;;2.80;;
1991;SDS011;997;48.448;8.924;2023-02-04T13:14:38;7.57;;;2.40;;
1991;SDS011;997;48.448;8.924;2023-02-04T13:17:05;3.67;;;3.37;;
1991;SDS011;997;48.448;8.924;2023-02-04T13:19:31;9.00;;;2.37;;
1991;SDS011;997;48.448;8.924;2023-02-04T13:21:57;7.33;;;3.97;;
1991;SDS011;997;48.448;8.924;2023-02-04T13:24:23;5.40;;;3.10;;
1991;SDS011;997;48.448;8.924;2023-02-04T13:26:50;3.90;;;2.27;;
1991;SDS011;997;48.448;8.924;2023-02-04T13:29:16;4.03;;;2.57;;
1991;SDS011;997;48.448;8.924;2023-02-04T13:31:42;11.70;;;2.83;;
1991;SDS011;997;48.448;8.924;2023-02-04T13:34:08;13.77;;;2.97;;
1991;SDS011;997;48.448;8.924;2023-02-04T13:36:34;6.63;;;2.80;;
1991;SDS011;997;48.448;8.924;2023-02-04T13:38:59;4.87;;;2.50;;
1991;SDS011;997;48.448;8.924;2023-02-04T13:41:26;4.87;;;2.80;;
1991;SDS011;997;48.448;8.924;2023-02-04T13:43:52;10.73;;;3.73;;
1991;SDS011;997;48.448;8.924;2023-02-04T13:46:18;7.10;;;3.10;;
1991;SDS011;997;48.448;8.924;2023-02-04T13:48:44;11.10;;;4.30;;
1991;SDS011;997;48.448;8.924;2023-02-04T13:51:10;24.60;;;21.03;;
1991;SDS011;997;48.448;8.924;2023-02-04T13:53:35;8.63;;;3.03;;
1991;SDS011;997;48.448;8.924;2023-02-04T13:56:01;5.57;;;3.43;;
1991;SDS011;997;48.448;8.924;2023-02-04T13:58:27;6.53;;;2.40;;
1991;SDS011;997;48.448;8.924;2023-02-04T14:00:53;11.10;;;4.20;;
1991;SDS011;997;48.448;8.924;2023-02-04T14:03:28;9.80;;;3.43;;
1991;SDS011;997;48.448;8.924;2023-02-04T14:05:54;5.37;;;2.97;;
1991;SDS011;997;48.448;8.924;2023-02-04T14:08:20;4.20;;;3.60;;
1991;SDS011;997;48.448;8.924;2023-02-04T14:10:46;5.60;;;3.23;;
1991;SDS011;997;48.448;8.924;2023-02-04T14:13:12;8.10;;;3.13;;
1991;SDS011;997;48.448;8.924;2023-02-04T14:15:38;7.67;;;2.50;;
1991;SDS011;997;48.448;8.924;2023-02-04T14:18:07;9.23;;;2.60;;
1991;SDS011;997;48.448;8.924;2023-02-04T14:20:34;14.87;;;3.43;;
1991;SDS011;997;48.448;8.924;2023-02-04T14:23:01;5.13;;;2.20;;
1991;SDS011;997;48.448;8.924;2023-02-04T14:25:28;7.03;;;2.87;;
1991;SDS011;997;48.448;8.924;2023-02-04T14:27:53;4.13;;;2.23;;
1991;SDS011;997;48.448;8.924;2023-02-04T14:30:21;4.73;;;1.97;;
1991;SDS011;997;48.448;8.924;2023-02-04T14:32:49;3.80;;;2.30;;
1991;SDS011;997;48.448;8.924;2023-02-04T14:35:15;9.93;;;2.53;;
1991;SDS011;997;48.448;8.924;2023-02-04T14:37:41;8.13;;;2.90;;
1991;SDS011;997;48.448;8.924;2023-02-04T14:40:08;6.10;;;3.40;;
1991;SDS011;997;48.448;8.924;2023-02-04T14:42:35;7.00;;;2.80;;
1991;SDS011;997;48.448;8.924;2023-02-04T14:45:03;4.27;;;3.10;;
1991;SDS011;997;48.448;8.924;2023-02-04T14:47:30;8.33;;;2.20;;
1991;SDS011;997;48.448;8.924;2023-02-04T14:49:56;4.13;;;2.23;;
1991;SDS011;997;48.448;8.924;2023-02-04T14:52:34;8.67;;;5.07;;
1991;SDS011;997;48.448;8.924;2023-02-04T14:55:00;7.40;;;3.33;;
1991;SDS011;997;48.448;8.924;2023-02-04T14:57:25;4.83;;;2.83;;
1991;SDS011;997;48.448;8.924;2023-02-04T14:59:51;4.70;;;3.33;;
1991;SDS011;997;48.448;8.924;2023-02-04T15:02:31;7.57;;;2.30;;
1991;SDS011;997;48.448;8.924;2023-02-04T15:05:14;4.50;;;2.53;;
1991;SDS011;997;48.448;8.924;2023-02-04T17:40:08;113.17;;;96.40;;
1991;SDS011;997;48.448;8.924;2023-02-04T17:42:37;134.90;;;102.70;;
1991;SDS011;997;48.448;8.924;2023-02-04T17:45:03;128.47;;;103.50;;
1991;SDS011;997;48.448;8.924;2023-02-04T17:47:31;89.40;;;73.73;;
1991;SDS011;997;48.448;8.924;2023-02-04T17:50:05;66.50;;;56.63;;
1991;SDS011;997;48.448;8.924;2023-02-04T17:52:34;45.80;;;40.73;;
1991;SDS011;997;48.448;8.924;2023-02-04T17:55:00;31.37;;;27.97;;
1991;SDS011;997;48.448;8.924;2023-02-04T17:57:52;38.40;;;30.03;;
1991;SDS011;997;48.448;8.924;2023-02-04T18:00:19;29.33;;;23.33;;
1991;SDS011;997;48.448;8.924;2023-02-04T18:02:47;24.93;;;22.20;;
1991;SDS011;997;48.448;8.924;2023-02-04T18:05:16;27.20;;;21.63;;
1991;SDS011;997;48.448;8.924;2023-02-04T18:10:37;21.80;;;19.50;;
1991;SDS011;997;48.448;8.924;2023-02-04T18:13:16;19.03;;;17.13;;
1991;SDS011;997;48.448;8.924;2023-02-04T18:15:43;18.43;;;16.43;;
1991;SDS011;997;48.448;8.924;2023-02-04T18:21:25;21.73;;;17.27;;
1991;SDS011;997;48.448;8.924;2023-02-04T18:24:05;13.80;;;12.37;;
1991;SDS011;997;48.448;8.924;2023-02-04T18:26:54;17.40;;;15.00;;
1991;SDS011;997;48.448;8.924;2023-02-04T18:31:52;15.37;;;13.80;;
1991;SDS011;997;48.448;8.924;2023-02-04T18:34:26;12.90;;;10.90;;
1991;SDS011;997;48.448;8.924;2023-02-04T18:36:57;14.87;;;13.37;;
1991;SDS011;997;48.448;8.924;2023-02-04T18:39:44;12.33;;;10.80;;
1991;SDS011;997;48.448;8.924;2023-02-04T18:42:11;16.07;;;10.53;;
1991;SDS011;997;48.448;8.924;2023-02-04T18:44:40;12.10;;;11.10;;
1991;SDS011;997;48.448;8.924;2023-02-04T18:47:22;11.73;;;10.63;;
1991;SDS011;997;48.448;8.924;2023-02-04T18:49:53;18.03;;;13.93;;
1991;SDS011;997;48.448;8.924;2023-02-04T18:52:19;15.07;;;11.53;;
1991;SDS011;997;48.448;8.924;2023-02-04T18:54:49;17.90;;;11.00;;
1991;SDS011;997;48.448;8.924;2023-02-04T19:02:41;58.93;;;49.10;;
1991;SDS011;997;48.448;8.924;2023-02-04T19:05:28;12.73;;;10.60;;
1991;SDS011;997;48.448;8.924;2023-02-04T19:10:31;25.23;;;16.20;;
1991;SDS011;997;48.448;8.924;2023-02-04T19:15:58;14.53;;;12.57;;
1991;SDS011;997;48.448;8.924;2023-02-04T19:18:45;16.90;;;14.60;;
1991;SDS011;997;48.448;8.924;2023-02-04T19:23:42;19.40;;;14.00;;
1991;SDS011;997;48.448;8.924;2023-02-04T19:26:51;16.67;;;14.50;;
1991;SDS011;997;48.448;8.924;2023-02-04T19:29:37;19.03;;;14.80;;
1991;SDS011;997;48.448;8.924;2023-02-04T19:31:56;20.67;;;16.30;;
1991;SDS011;997;48.448;8.924;2023-02-04T19:34:45;18.70;;;14.53;;
1991;SDS011;997;48.448;8.924;2023-02-04T19:39:49;14.70;;;11.57;;
1991;SDS011;997;48.448;8.924;2023-02-04T19:42:31;13.60;;;11.60;;
1991;SDS011;997;48.448;8.924;2023-02-04T19:45:49;11.40;;;10.20;;
1991;SDS011;997;48.448;8.924;2023-02-04T19:48:32;9.53;;;8.57;;
1991;SDS011;997;48.448;8.924;2023-02-04T19:51:14;14.03;;;9.03;;
1991;SDS011;997;48.448;8.924;2023-02-04T19:54:16;10.13;;;8.63;;
